createdAt,value
2023-01-05T00:00:16.134Z,7.00
2023-01-05T00:02:45.976Z,7.00
2023-01-05T00:05:15.495Z,7.00
2023-01-05T00:07:44.989Z,6.90
2023-01-05T00:10:34.587Z,7.00
2023-01-05T00:13:21.817Z,7.00
2023-01-05T00:16:09.624Z,7.00
2023-01-05T00:18:57.001Z,7.00
2023-01-05T00:21:44.592Z,6.90
2023-01-05T00:24:14.001Z,7.10
2023-01-05T00:26:43.446Z,6.90
2023-01-05T00:29:13.390Z,7.00
2023-01-05T00:31:42.876Z,6.90
2023-01-05T00:34:12.887Z,7.00
2023-01-05T00:36:43.966Z,6.90
2023-01-05T00:39:13.371Z,6.90
2023-01-05T00:41:43.845Z,6.90
2023-01-05T00:44:13.431Z,6.90
2023-01-05T00:46:42.904Z,7.00
2023-01-05T00:49:12.398Z,7.00
2023-01-05T00:51:43.096Z,7.00
2023-01-05T00:54:12.932Z,7.00
2023-01-05T00:56:42.375Z,7.00
2023-01-05T00:59:12.361Z,7.00
2023-01-05T01:01:42.017Z,7.10
2023-01-05T01:04:11.455Z,6.90
2023-01-05T01:06:41.465Z,7.00
2023-01-05T01:09:11.628Z,7.00
2023-01-05T01:11:41.567Z,6.90
2023-01-05T01:14:13.903Z,6.90
2023-01-05T01:16:45.077Z,6.90
2023-01-05T01:19:20.253Z,6.90
2023-01-05T01:21:50.938Z,6.90
2023-01-05T01:24:23.793Z,6.90
2023-01-05T01:26:54.745Z,7.00
2023-01-05T01:29:25.589Z,7.00
2023-01-05T01:31:55.339Z,7.00
2023-01-05T01:34:25.046Z,7.00
2023-01-05T01:36:57.553Z,6.90
2023-01-05T01:39:28.749Z,6.80
2023-01-05T01:41:59.873Z,6.90
2023-01-05T01:44:50.253Z,7.00
2023-01-05T01:47:30.747Z,7.00
2023-01-05T01:50:05.137Z,7.00
2023-01-05T01:52:36.098Z,7.00
2023-01-05T01:55:07.669Z,7.00
2023-01-05T01:57:39.804Z,7.00
2023-01-05T02:00:09.710Z,7.10
2023-01-05T02:02:48.311Z,6.90
2023-01-05T02:05:23.252Z,7.00
2023-01-05T02:07:53.028Z,6.90
2023-01-05T02:10:26.163Z,6.90
2023-01-05T02:13:08.181Z,6.90
2023-01-05T02:15:46.263Z,7.00
2023-01-05T02:18:24.771Z,7.00
2023-01-05T02:21:01.126Z,6.90
2023-01-05T02:23:45.861Z,6.90
2023-01-05T02:26:31.496Z,6.80
2023-01-05T02:29:34.777Z,6.90
2023-01-05T02:32:16.341Z,6.90
2023-01-05T02:34:46.590Z,6.80
2023-01-05T02:37:19.928Z,6.90
2023-01-05T02:39:55.403Z,6.80
2023-01-05T02:42:28.938Z,6.80
2023-01-05T02:44:58.445Z,6.90
2023-01-05T02:47:31.625Z,6.90
2023-01-05T02:50:11.781Z,6.90
2023-01-05T02:53:05.901Z,6.90
2023-01-05T02:55:56.838Z,7.00
2023-01-05T02:58:32.744Z,7.00
2023-01-05T03:01:08.774Z,6.90
2023-01-05T03:03:43.169Z,7.00
2023-01-05T03:06:22.538Z,7.10
2023-01-05T03:09:02.181Z,7.00
2023-01-05T03:11:55.504Z,6.90
2023-01-05T03:14:49.322Z,7.00
2023-01-05T03:17:22.180Z,7.00
2023-01-05T03:19:56.632Z,7.00
2023-01-05T03:22:47.096Z,6.90
2023-01-05T03:26:00.410Z,6.90
2023-01-05T03:28:58.672Z,7.00
2023-01-05T03:31:56.876Z,7.00
2023-01-05T03:35:17.895Z,7.00
2023-01-05T03:38:04.329Z,7.00
2023-01-05T03:40:37.730Z,7.00
2023-01-05T03:43:08.949Z,7.00
2023-01-05T03:45:40.714Z,7.00
2023-01-05T03:48:12.075Z,7.00
2023-01-05T03:50:40.710Z,7.00
2023-01-05T03:53:11.474Z,7.00
2023-01-05T03:55:41.753Z,7.00
2023-01-05T03:58:11.497Z,7.00
2023-01-05T04:00:42.639Z,7.10
2023-01-05T04:03:13.024Z,7.10
2023-01-05T04:05:41.769Z,7.10
2023-01-05T04:08:13.689Z,7.00
2023-01-05T04:10:43.118Z,7.00
2023-01-05T04:13:13.380Z,7.00
2023-01-05T04:15:43.716Z,7.10
2023-01-05T04:18:13.229Z,7.00
2023-01-05T04:20:45.132Z,7.00
2023-01-05T04:23:15.451Z,7.00
2023-01-05T04:25:46.578Z,7.00
2023-01-05T04:28:17.775Z,7.00
2023-01-05T04:30:51.857Z,7.00
2023-01-05T04:33:23.432Z,7.00
2023-01-05T04:35:54.239Z,7.10
2023-01-05T04:38:25.392Z,7.10
2023-01-05T04:40:55.646Z,7.10
2023-01-05T04:43:25.444Z,7.10
2023-01-05T04:45:56.365Z,7.00
2023-01-05T04:48:25.385Z,7.10
2023-01-05T04:50:56.805Z,7.00
2023-01-05T04:53:27.453Z,7.10
2023-01-05T04:55:57.172Z,7.00
2023-01-05T04:58:27.196Z,7.10
2023-01-05T05:00:57.588Z,7.10
2023-01-05T05:03:32.757Z,7.10
2023-01-05T05:06:00.129Z,7.10
2023-01-05T05:08:30.431Z,7.10
2023-01-05T05:11:01.360Z,7.10
2023-01-05T05:13:31.833Z,7.10
2023-01-05T05:16:01.810Z,7.10
2023-01-05T05:18:32.039Z,7.10
2023-01-05T05:21:02.295Z,7.10
2023-01-05T05:23:33.433Z,7.10
2023-01-05T05:26:03.171Z,7.10
2023-01-05T05:28:33.292Z,7.10
2023-01-05T05:31:03.452Z,7.10
2023-01-05T05:33:33.005Z,7.10
2023-01-05T05:36:02.418Z,7.10
2023-01-05T05:38:31.873Z,7.10
2023-01-05T05:41:01.293Z,7.10
2023-01-05T05:43:30.721Z,7.10
2023-01-05T05:46:00.779Z,7.10
2023-01-05T05:48:30.273Z,7.10
2023-01-05T05:50:59.703Z,7.10
2023-01-05T05:53:30.316Z,7.10
2023-01-05T05:55:59.820Z,7.10
2023-01-05T05:58:29.224Z,7.10
2023-01-05T06:01:00.362Z,7.10
2023-01-05T06:03:29.855Z,7.10
2023-01-05T06:05:59.432Z,7.10
2023-01-05T06:08:30.018Z,7.10
2023-01-05T06:10:58.936Z,7.10
2023-01-05T06:13:27.579Z,7.10
2023-01-05T06:15:57.245Z,7.10
2023-01-05T06:18:28.742Z,7.10
2023-01-05T06:21:01.757Z,7.10
2023-01-05T06:23:29.703Z,7.10
2023-01-05T06:25:59.210Z,7.10
2023-01-05T06:28:28.093Z,7.10
2023-01-05T06:30:57.501Z,7.10
2023-01-05T06:33:26.923Z,7.10
2023-01-05T06:35:57.982Z,7.20
2023-01-05T06:38:30.163Z,7.20
2023-01-05T06:40:59.879Z,7.20
2023-01-05T06:43:29.567Z,7.20
2023-01-05T06:45:59.336Z,7.20
2023-01-05T06:48:29.246Z,7.30
2023-01-05T06:50:58.847Z,7.30
2023-01-05T06:53:28.456Z,7.30
2023-01-05T06:55:57.882Z,7.30
2023-01-05T06:58:27.332Z,7.20
2023-01-05T07:00:56.215Z,7.30
2023-01-05T07:03:25.607Z,7.30
2023-01-05T07:05:54.284Z,7.20
2023-01-05T07:08:23.923Z,7.20
2023-01-05T07:10:53.355Z,7.20
2023-01-05T07:13:22.892Z,7.20
2023-01-05T07:15:52.501Z,7.30
2023-01-05T07:18:21.927Z,7.30
2023-01-05T07:20:51.359Z,7.30
2023-01-05T07:23:21.294Z,7.30
2023-01-05T07:25:50.716Z,7.30
2023-01-05T07:28:20.142Z,7.30
2023-01-05T07:30:54.375Z,7.40
2023-01-05T07:33:23.880Z,7.40
2023-01-05T07:35:53.718Z,7.40
2023-01-05T07:38:23.232Z,7.40
2023-01-05T07:40:52.811Z,7.40
2023-01-05T07:43:22.523Z,7.40
2023-01-05T07:45:52.039Z,7.40
2023-01-05T07:48:23.599Z,7.40
2023-01-05T07:50:56.645Z,7.50
2023-01-05T07:53:25.717Z,7.50
2023-01-05T07:55:58.750Z,7.50
2023-01-05T07:58:27.670Z,7.50
2023-01-05T08:00:59.483Z,7.50
2023-01-05T08:03:28.957Z,7.50
2023-01-05T08:05:57.601Z,7.50
2023-01-05T08:08:26.446Z,7.60
2023-01-05T08:10:55.782Z,7.60
2023-01-05T08:13:43.708Z,7.60
2023-01-05T08:16:13.176Z,7.70
2023-01-05T08:18:41.872Z,7.70
2023-01-05T08:21:11.422Z,7.70
2023-01-05T08:23:41.216Z,7.70
2023-01-05T08:26:13.720Z,7.70
2023-01-05T08:28:44.764Z,7.80
2023-01-05T08:31:18.893Z,7.80
2023-01-05T08:33:48.523Z,7.80
2023-01-05T08:36:21.261Z,7.80
2023-01-05T08:38:51.782Z,7.90
2023-01-05T08:41:24.181Z,7.90
2023-01-05T08:43:56.248Z,7.90
2023-01-05T08:46:28.844Z,8.00
2023-01-05T08:49:01.262Z,8.00
2023-01-05T08:51:31.849Z,8.10
2023-01-05T08:54:01.735Z,8.10
2023-01-05T08:56:37.986Z,8.20
2023-01-05T08:59:02.597Z,8.20
2023-01-05T09:01:32.811Z,8.20
2023-01-05T09:04:02.638Z,8.30
2023-01-05T09:06:32.202Z,8.30
2023-01-05T09:09:02.799Z,8.40
2023-01-05T09:11:32.346Z,8.40
2023-01-05T09:14:03.831Z,8.50
2023-01-05T09:17:06.307Z,8.50
2023-01-05T09:19:07.199Z,8.60
2023-01-05T09:21:39.111Z,8.60
2023-01-05T09:24:08.743Z,8.70
2023-01-05T09:26:38.186Z,8.70
2023-01-05T09:29:07.617Z,8.70
2023-01-05T09:31:37.408Z,8.70
2023-01-05T09:34:07.059Z,8.80
2023-01-05T09:36:39.201Z,8.90
2023-01-05T09:39:08.755Z,8.80
2023-01-05T09:41:45.060Z,8.90
2023-01-05T09:44:32.753Z,9.00
2023-01-05T09:47:06.110Z,9.00
2023-01-05T09:49:36.559Z,9.00
2023-01-05T09:52:11.451Z,9.10
2023-01-05T09:54:41.924Z,9.20
2023-01-05T09:57:24.225Z,9.20
2023-01-05T09:59:58.113Z,9.10
2023-01-05T10:02:34.089Z,9.20
2023-01-05T10:05:06.388Z,9.30
2023-01-05T10:07:43.412Z,9.30
2023-01-05T10:11:07.708Z,9.40
2023-01-05T10:13:40.599Z,9.40
2023-01-05T10:16:10.831Z,9.60
2023-01-05T10:18:39.593Z,9.70
2023-01-05T10:21:26.460Z,9.80
2023-01-05T10:24:19.860Z,10.00
2023-01-05T10:27:24.280Z,10.40
2023-01-05T10:29:32.491Z,10.40
2023-01-05T10:32:27.693Z,10.30
2023-01-05T10:35:00.029Z,10.50
2023-01-05T10:37:33.916Z,10.70
2023-01-05T10:40:11.891Z,10.70
2023-01-05T10:43:09.121Z,10.80
2023-01-05T10:46:03.192Z,10.90
2023-01-05T10:48:16.339Z,10.80
2023-01-05T10:50:48.318Z,10.80
2023-01-05T10:53:24.752Z,10.90
2023-01-05T10:56:09.605Z,10.90
2023-01-05T10:58:45.087Z,11.00
2023-01-05T11:01:29.686Z,11.00
2023-01-05T11:04:34.266Z,11.10
2023-01-05T11:06:55.169Z,11.20
2023-01-05T11:09:27.270Z,11.30
2023-01-05T11:12:00.180Z,11.30
2023-01-05T11:14:32.718Z,11.30
2023-01-05T11:17:02.960Z,11.20
2023-01-05T11:19:35.874Z,11.30
2023-01-05T11:22:05.373Z,11.30
2023-01-05T11:24:37.665Z,11.30
2023-01-05T11:27:25.776Z,11.30
2023-01-05T11:30:09.654Z,11.40
2023-01-05T11:32:40.691Z,11.40
2023-01-05T11:35:22.644Z,11.50
2023-01-05T11:37:52.300Z,11.50
2023-01-05T11:40:25.104Z,11.50
2023-01-05T11:42:53.830Z,11.60
2023-01-05T11:45:30.044Z,11.70
2023-01-05T11:48:07.188Z,11.80
2023-01-05T11:50:48.953Z,11.90
2023-01-05T11:53:36.735Z,12.10
2023-01-05T11:56:12.417Z,11.90
2023-01-05T11:58:47.772Z,11.90
2023-01-05T12:01:46.557Z,11.90
2023-01-05T12:04:41.807Z,12.20
2023-01-05T12:07:32.425Z,12.30
2023-01-05T12:10:22.306Z,12.30
2023-01-05T12:12:57.629Z,12.10
2023-01-05T12:15:33.055Z,12.10
2023-01-05T12:18:24.302Z,12.20
2023-01-05T12:21:14.889Z,12.20
2023-01-05T12:24:10.249Z,12.20
2023-01-05T12:27:06.745Z,12.30
2023-01-05T12:35:33.953Z,12.20
2023-01-05T12:38:30.484Z,12.30
2023-01-05T12:41:11.727Z,12.20
2023-01-05T12:44:02.179Z,12.30
2023-01-05T12:46:50.400Z,12.50
2023-01-05T12:49:26.099Z,12.50
2023-01-05T12:52:04.374Z,12.50
2023-01-05T12:54:42.583Z,12.50
2023-01-05T12:57:39.511Z,12.60
2023-01-05T13:00:15.031Z,12.60
2023-01-05T13:03:02.680Z,12.60
2023-01-05T13:05:46.339Z,12.60
2023-01-05T13:08:23.561Z,12.60
2023-01-05T13:11:02.163Z,12.70
2023-01-05T13:13:40.880Z,12.80
2023-01-05T13:16:28.100Z,12.80
2023-01-05T13:19:00.992Z,12.90
2023-01-05T13:21:31.926Z,12.70
2023-01-05T13:24:24.684Z,12.60
2023-01-05T13:26:54.295Z,12.70
2023-01-05T13:29:27.163Z,12.70
2023-01-05T13:32:14.765Z,12.80
2023-01-05T13:35:16.644Z,12.70
2023-01-05T13:38:05.392Z,12.60
2023-01-05T13:40:43.697Z,12.50
2023-01-05T13:43:22.142Z,12.60
2023-01-05T13:45:55.884Z,12.60
2023-01-05T13:48:45.267Z,12.70
2023-01-05T13:51:35.644Z,12.60
2023-01-05T13:54:09.311Z,12.50
2023-01-05T13:56:41.231Z,12.50
2023-01-05T13:59:24.640Z,12.50
2023-01-05T14:01:48.689Z,12.50
2023-01-05T14:04:32.742Z,12.50
2023-01-05T14:07:04.467Z,12.60
2023-01-05T14:09:36.966Z,12.50
2023-01-05T14:12:14.261Z,12.60
2023-01-05T14:15:05.919Z,12.60
2023-01-05T14:17:55.741Z,12.60
2023-01-05T14:20:37.213Z,12.60
2023-01-05T14:23:29.596Z,12.60
2023-01-05T14:26:09.430Z,12.60
2023-01-05T14:28:44.782Z,12.60
2023-01-05T14:31:17.340Z,12.60
2023-01-05T14:33:54.904Z,12.60
2023-01-05T14:36:41.665Z,12.60
2023-01-05T14:39:20.634Z,12.60
2023-01-05T14:41:59.287Z,12.60
2023-01-05T14:44:52.694Z,12.50
2023-01-05T14:47:22.871Z,12.50
2023-01-05T14:49:56.188Z,12.60
2023-01-05T14:52:54.452Z,12.50
2023-01-05T14:55:38.682Z,12.40
2023-01-05T14:58:04.461Z,12.40
2023-01-05T15:00:55.138Z,12.50
2023-01-05T15:03:31.503Z,12.50
2023-01-05T15:06:14.919Z,12.50
2023-01-05T15:09:07.944Z,12.40
2023-01-05T15:12:12.722Z,12.40
2023-01-05T15:14:50.890Z,12.30
2023-01-05T15:17:40.421Z,12.30
2023-01-05T15:20:29.147Z,12.30
2023-01-05T15:23:26.015Z,12.20
2023-01-05T15:26:31.872Z,12.20
2023-01-05T15:29:13.565Z,12.10
2023-01-05T15:31:48.685Z,12.00
2023-01-05T15:34:40.924Z,12.00
2023-01-05T15:37:30.291Z,11.90
2023-01-05T15:40:04.647Z,11.80
2023-01-05T15:42:45.992Z,11.70
2023-01-05T15:45:37.319Z,11.70
2023-01-05T15:48:10.110Z,11.80
2023-01-05T15:50:51.955Z,11.80
2023-01-05T15:53:27.541Z,11.70
2023-01-05T15:55:58.425Z,11.60
2023-01-05T15:58:31.237Z,11.60
2023-01-05T16:01:09.998Z,11.60
2023-01-05T16:03:41.826Z,11.50
2023-01-05T16:06:31.140Z,11.50
2023-01-05T16:09:03.646Z,11.40
2023-01-05T16:11:36.646Z,11.40
2023-01-05T16:14:06.821Z,11.40
2023-01-05T16:16:57.687Z,11.30
2023-01-05T16:19:19.080Z,11.30
2023-01-05T16:21:51.716Z,11.30
2023-01-05T16:24:30.222Z,11.30
2023-01-05T16:27:01.301Z,11.20
2023-01-05T16:29:38.432Z,11.20
2023-01-05T16:32:26.540Z,11.10
2023-01-05T16:35:15.688Z,11.10
2023-01-05T16:37:47.137Z,11.10
2023-01-05T16:40:23.288Z,11.10
2023-01-05T16:42:52.842Z,11.00
2023-01-05T16:45:25.275Z,11.00
2023-01-05T16:47:56.680Z,11.00
2023-01-05T16:50:31.935Z,10.90
2023-01-05T16:53:09.617Z,10.90
2023-01-05T16:55:40.660Z,10.90
2023-01-05T16:58:31.384Z,10.90
2023-01-05T17:01:16.748Z,10.90
2023-01-05T17:03:47.177Z,10.90
2023-01-05T17:06:25.350Z,10.80
2023-01-05T17:08:56.972Z,10.80
2023-01-05T17:11:29.473Z,10.80
2023-01-05T17:13:59.183Z,10.70
2023-01-05T17:16:29.222Z,10.80
2023-01-05T17:19:00.871Z,10.80
2023-01-05T17:21:33.100Z,10.70
2023-01-05T17:24:02.939Z,10.70
2023-01-05T17:26:35.536Z,10.70
2023-01-05T17:29:08.533Z,10.70
2023-01-05T17:31:37.438Z,10.60
2023-01-05T17:34:06.793Z,10.60
2023-01-05T17:36:37.002Z,10.60
2023-01-05T17:39:06.710Z,10.60
2023-01-05T17:41:38.005Z,10.60
2023-01-05T17:44:07.612Z,10.60
2023-01-05T17:46:41.455Z,10.60
2023-01-05T17:49:17.130Z,10.60
2023-01-05T17:51:47.702Z,10.60
2023-01-05T17:54:18.153Z,10.60
2023-01-05T17:56:47.876Z,10.60
2023-01-05T17:59:17.581Z,10.60
2023-01-05T18:01:47.915Z,10.60
2023-01-05T18:04:17.831Z,10.60
2023-01-05T18:09:16.942Z,10.60
2023-01-05T18:11:46.381Z,10.50
2023-01-05T18:14:16.295Z,10.50
2023-01-05T18:16:46.609Z,10.50
2023-01-05T18:19:16.812Z,10.50
2023-01-05T18:21:46.325Z,10.50
2023-01-05T18:24:15.747Z,10.50
2023-01-05T18:26:46.632Z,10.40
2023-01-05T18:29:16.925Z,10.40
2023-01-05T18:31:46.948Z,10.40
2023-01-05T18:34:16.459Z,10.20
2023-01-05T18:36:46.242Z,10.20
2023-01-05T18:39:16.048Z,10.10
2023-01-05T18:41:45.610Z,10.10
2023-01-05T18:44:15.651Z,10.10
2023-01-05T18:46:45.412Z,10.10
2023-01-05T18:49:17.325Z,10.10
2023-01-05T18:51:46.768Z,10.00
2023-01-05T18:54:16.215Z,9.90
2023-01-05T18:56:45.756Z,9.90
2023-01-05T18:59:16.033Z,9.80
2023-01-05T19:01:45.658Z,9.80
2023-01-05T19:04:17.285Z,9.80
2023-01-05T19:06:46.960Z,9.70
2023-01-05T19:09:16.441Z,9.60
2023-01-05T19:11:48.916Z,9.60
2023-01-05T19:14:19.378Z,9.60
2023-01-05T19:16:49.149Z,9.60
2023-01-05T19:19:20.214Z,9.60
2023-01-05T19:21:49.682Z,9.50
2023-01-05T19:24:21.819Z,9.50
2023-01-05T19:26:51.373Z,9.50
2023-01-05T19:29:22.297Z,9.40
2023-01-05T19:31:51.789Z,9.40
2023-01-05T19:34:21.577Z,9.30
2023-01-05T19:36:51.146Z,9.40
2023-01-05T19:39:22.700Z,9.30
2023-01-05T19:41:52.724Z,9.20
2023-01-05T19:44:23.586Z,9.20
2023-01-05T19:46:54.539Z,9.20
2023-01-05T19:49:26.908Z,9.20
2023-01-05T19:51:56.994Z,9.20
2023-01-05T19:54:26.624Z,9.10
2023-01-05T19:56:56.608Z,9.00
2023-01-05T19:59:28.941Z,9.00
2023-01-05T20:01:58.634Z,8.90
2023-01-05T20:04:29.958Z,8.90
2023-01-05T20:07:04.132Z,8.90
2023-01-05T20:09:33.969Z,8.90
2023-01-05T20:12:13.805Z,8.90
2023-01-05T20:14:35.333Z,8.80
2023-01-05T20:17:08.228Z,8.90
2023-01-05T20:19:39.466Z,8.60
2023-01-05T20:22:15.542Z,8.70
2023-01-05T20:24:45.657Z,8.70
2023-01-05T20:27:17.081Z,8.70
2023-01-05T20:29:47.474Z,8.50
2023-01-05T20:32:20.055Z,8.50
2023-01-05T20:34:55.325Z,8.60
2023-01-05T20:37:25.375Z,8.60
2023-01-05T20:39:59.701Z,8.60
2023-01-05T20:42:30.453Z,8.60
2023-01-05T20:45:01.364Z,8.60
2023-01-05T20:47:39.434Z,8.50
2023-01-05T20:50:02.770Z,8.50
2023-01-05T20:52:32.270Z,8.50
2023-01-05T20:55:01.706Z,8.50
2023-01-05T20:57:31.321Z,8.10
2023-01-05T21:00:00.870Z,8.30
2023-01-05T21:02:30.343Z,7.90
2023-01-05T21:05:00.119Z,8.00
2023-01-05T21:07:29.684Z,8.10
2023-01-05T21:09:59.244Z,8.10
2023-01-05T21:12:29.326Z,8.10
2023-01-05T21:14:59.124Z,8.10
2023-01-05T21:17:29.051Z,8.20
2023-01-05T21:19:58.591Z,8.20
2023-01-05T21:22:28.068Z,8.20
2023-01-05T21:24:57.629Z,8.20
2023-01-05T21:27:27.220Z,8.20
2023-01-05T21:29:56.780Z,8.20
2023-01-05T21:32:27.214Z,8.10
2023-01-05T21:34:56.636Z,8.10
2023-01-05T21:37:26.075Z,8.10
2023-01-05T21:39:55.544Z,8.10
2023-01-05T21:42:44.776Z,8.10
2023-01-05T21:45:15.828Z,8.00
2023-01-05T21:47:47.955Z,7.90
2023-01-05T21:50:19.192Z,7.90
2023-01-05T21:53:06.342Z,7.80
2023-01-05T21:55:55.064Z,7.80
2023-01-05T21:58:43.906Z,7.70
2023-01-05T22:01:14.117Z,7.80
2023-01-05T22:03:44.055Z,7.80
2023-01-05T22:06:14.745Z,7.80
2023-01-05T22:08:44.229Z,7.80
2023-01-05T22:11:14.764Z,7.80
2023-01-05T22:13:44.278Z,7.80
2023-01-05T22:16:14.071Z,7.80
2023-01-05T22:18:43.651Z,7.80
2023-01-05T22:21:14.944Z,7.70
2023-01-05T22:23:45.326Z,7.70
2023-01-05T22:26:17.531Z,7.50
2023-01-05T22:28:48.503Z,7.50
2023-01-05T22:31:20.930Z,7.50
2023-01-05T22:33:54.067Z,7.50
2023-01-05T22:36:24.980Z,7.50
2023-01-05T22:38:56.061Z,7.50
2023-01-05T22:41:30.223Z,7.40
2023-01-05T22:44:02.036Z,7.50
2023-01-05T22:46:32.595Z,7.50
2023-01-05T22:49:01.733Z,7.50
2023-01-05T22:51:34.011Z,7.40
2023-01-05T22:54:06.072Z,7.40
2023-01-05T22:56:35.941Z,7.40
2023-01-05T22:59:05.948Z,7.30
2023-01-05T23:01:36.154Z,7.40
2023-01-05T23:04:09.600Z,7.40
2023-01-05T23:06:38.708Z,7.40
2023-01-05T23:09:10.774Z,7.40
2023-01-05T23:11:41.749Z,7.30
2023-01-05T23:14:13.255Z,7.40
2023-01-05T23:16:42.889Z,7.40
2023-01-05T23:19:15.442Z,7.30
2023-01-05T23:21:44.871Z,7.40
2023-01-05T23:24:14.401Z,7.30
2023-01-05T23:26:43.859Z,7.40
2023-01-05T23:29:13.261Z,7.40
2023-01-05T23:31:42.683Z,7.30
2023-01-05T23:34:12.260Z,7.20
2023-01-05T23:36:41.699Z,7.10
2023-01-05T23:39:11.250Z,7.20
2023-01-05T23:41:41.166Z,7.20
2023-01-05T23:44:12.238Z,7.20
2023-01-05T23:46:42.139Z,7.20
2023-01-05T23:49:11.596Z,7.10
2023-01-05T23:52:00.364Z,7.20
2023-01-05T23:54:30.003Z,7.10
2023-01-05T23:56:59.512Z,7.10
2023-01-05T23:59:28.920Z,7.20
